Time,TemperatureF,DewpointF,PressureIn,WindDirection,WindDirectionDegrees,WindSpeedMPH,WindSpeedGustMPH,Humidity,HourlyPrecipIn,Conditions,Clouds,dailyrainin,SoftwareType,DateUTC
2013-03-30 00:00:00,36.9,30.4,30.20,North,11,0.0,0.0,77,0.00,,SCT100,0.00,VWS V14.01,2013-03-30 04:00:00,
2013-03-30 00:05:00,36.9,29.7,30.20,North,11,0.0,0.0,75,0.00,,CLR,0.00,VWS V14.01,2013-03-30 04:05:00,
2013-03-30 00:10:00,36.9,29.4,30.20,North,11,0.0,0.0,74,0.00,,CLR,0.00,VWS V14.01,2013-03-30 04:10:00,
2013-03-30 00:15:00,37.0,29.8,30.20,North,11,0.0,0.0,75,0.00,,CLR,0.00,VWS V14.01,2013-03-30 04:15:00,
2013-03-30 00:20:00,37.0,29.5,30.20,North,11,0.0,0.0,74,0.00,,CLR,0.00,VWS V14.01,2013-03-30 04:20:00,
2013-03-30 00:25:00,36.9,30.4,30.20,North,11,0.0,0.0,77,0.00,,CLR,0.00,VWS V14.01,2013-03-30 04:25:00,
2013-03-30 00:30:00,36.8,29.6,30.20,North,11,0.0,0.0,75,0.00,,CLR,0.00,VWS V14.01,2013-03-30 04:30:00,
2013-03-30 00:35:00,36.8,29.3,30.20,North,11,0.0,0.0,74,0.00,,CLR,0.00,VWS V14.01,2013-03-30 04:35:00,
2013-03-30 00:40:00,36.6,29.8,30.20,North,11,0.0,0.0,76,0.00,,CLR,0.00,VWS V14.01,2013-03-30 04:40:00,
2013-03-30 00:45:00,36.3,29.8,30.20,North,11,0.0,0.0,77,0.00,,CLR,0.00,VWS V14.01,2013-03-30 04:45:00,
2013-03-30 00:50:00,36.2,29.7,30.20,NNE,14,0.0,0.0,77,0.00,,CLR,0.00,VWS V14.01,2013-03-30 04:50:00,
2013-03-30 00:55:00,36.1,29.9,30.20,NNE,14,0.0,0.0,78,0.00,,CLR,0.00,VWS V14.01,2013-03-30 04:55:00,
2013-03-30 01:00:00,36.1,29.6,30.20,NNE,14,0.0,0.0,77,0.00,,CLR,0.00,VWS V14.01,2013-03-30 05:00:00,
2013-03-30 01:05:00,36.4,29.2,30.19,NNE,14,0.0,0.0,75,0.00,,CLR,0.00,VWS V14.01,2013-03-30 05:05:00,
2013-03-30 01:10:00,36.7,29.2,30.19,NNE,14,0.0,1.0,74,0.00,,CLR,0.00,VWS V14.01,2013-03-30 05:10:00,
2013-03-30 01:15:00,36.9,30.0,30.19,NNE,14,0.0,1.0,76,0.00,,CLR,0.00,VWS V14.01,2013-03-30 05:15:00,
2013-03-30 01:20:00,36.7,30.5,30.19,NNE,14,0.0,1.0,78,0.00,,CLR,0.00,VWS V14.01,2013-03-30 05:20:00,
2013-03-30 01:25:00,36.2,30.3,30.19,NNE,12,0.0,1.0,79,0.00,,CLR,0.00,VWS V14.01,2013-03-30 05:25:00,
2013-03-30 01:30:00,35.6,30.0,30.19,NNE,12,0.0,0.0,80,0.00,,CLR,0.00,VWS V14.01,2013-03-30 05:30:00,
2013-03-30 01:35:00,35.5,30.9,30.19,NNE,12,0.0,0.0,83,0.00,,CLR,0.00,VWS V14.01,2013-03-30 05:35:00,
2013-03-30 01:40:00,35.6,31.2,30.19,NNE,12,0.0,0.0,84,0.00,,CLR,0.00,VWS V14.01,2013-03-30 05:40:00,
2013-03-30 01:45:00,35.6,30.4,30.19,NNE,12,0.0,0.0,81,0.00,,CLR,0.00,VWS V14.01,2013-03-30 05:45:00,
2013-03-30 01:50:00,35.7,30.1,30.20,NNE,12,0.0,0.0,80,0.00,,CLR,0.00,VWS V14.01,2013-03-30 05:50:00,
2013-03-30 01:55:00,35.8,30.9,30.20,NNE,12,0.0,0.0,82,0.00,,CLR,0.00,VWS V14.01,2013-03-30 05:55:00,
2013-03-30 02:00:00,35.9,31.2,30.20,NNE,12,0.0,0.0,83,0.00,,FEW110,0.00,VWS V14.01,2013-03-30 06:00:00,
2013-03-30 02:05:00,35.9,30.6,30.20,NNE,12,0.0,0.0,81,0.00,,FEW110,0.00,VWS V14.01,2013-03-30 06:05:00,
2013-03-30 02:10:00,35.9,30.3,30.20,NNE,12,0.0,0.0,80,0.00,,FEW110,0.00,VWS V14.01,2013-03-30 06:10:00,
2013-03-30 02:15:00,35.9,30.6,30.20,NNE,12,0.0,0.0,81,0.00,,FEW110,0.00,VWS V14.01,2013-03-30 06:15:00,
2013-03-30 02:20:00,35.9,30.0,30.19,NNE,12,0.0,0.0,79,0.00,,FEW110,0.00,VWS V14.01,2013-03-30 06:20:00,
2013-03-30 02:25:00,36.0,29.8,30.19,NNE,12,0.0,0.0,78,0.00,,FEW110,0.00,VWS V14.01,2013-03-30 06:25:00,
2013-03-30 02:30:00,35.9,30.3,30.19,NNE,12,0.0,0.0,80,0.00,,FEW110,0.00,VWS V14.01,2013-03-30 06:30:00,
2013-03-30 02:35:00,35.5,30.6,30.20,NNE,12,0.0,0.0,82,0.00,,FEW110,0.00,VWS V14.01,2013-03-30 06:35:00,
2013-03-30 02:41:00,35.0,30.1,30.20,NNE,12,0.0,0.0,82,0.00,,FEW110,0.00,VWS V14.01,2013-03-30 06:41:00,
2013-03-30 02:45:00,34.6,29.7,30.19,NNE,12,0.0,0.0,82,0.00,,FEW110,0.00,VWS V14.01,2013-03-30 06:45:00,
2013-03-30 02:51:00,34.4,29.2,30.20,NNE,12,0.0,0.0,81,0.00,,FEW110,0.00,VWS V14.01,2013-03-30 06:51:00,
2013-03-30 02:56:00,34.3,29.1,30.20,NNE,12,0.0,0.0,81,0.00,,FEW110,0.00,VWS V14.01,2013-03-30 06:56:00,
2013-03-30 03:00:00,34.2,29.3,30.20,NNE,12,0.0,0.0,82,0.00,,OVC085,0.00,VWS V14.01,2013-03-30 07:00:00,
2013-03-30 03:01:00,34.2,29.6,30.20,NNE,12,0.0,0.0,83,0.00,,FEW120,0.00,VWS V14.01,2013-03-30 07:01:00,
2013-03-30 03:06:00,34.1,29.8,30.20,NNE,12,0.0,0.0,84,0.00,,FEW120,0.00,VWS V14.01,2013-03-30 07:06:00,
2013-03-30 03:11:00,34.0,29.7,30.19,NNE,12,0.0,0.0,84,0.00,,FEW120,0.00,VWS V14.01,2013-03-30 07:11:00,
2013-03-30 03:16:00,34.0,29.7,30.20,NNE,12,0.0,0.0,84,0.00,,FEW120,0.00,VWS V14.01,2013-03-30 07:16:00,
2013-03-30 03:21:00,34.0,29.4,30.20,NNE,12,0.0,0.0,83,0.00,,FEW120,0.00,VWS V14.01,2013-03-30 07:21:00,
2013-03-30 03:26:00,34.1,28.6,30.19,NNE,12,0.0,0.0,80,0.00,,FEW120,0.00,VWS V14.01,2013-03-30 07:26:00,
2013-03-30 03:30:00,34.3,28.2,30.19,NNE,12,0.0,0.0,78,0.00,,OVC085,0.00,VWS V14.01,2013-03-30 07:30:00,
2013-03-30 03:31:00,34.3,28.2,30.19,NNE,12,0.0,0.0,78,0.00,,FEW120,0.00,VWS V14.01,2013-03-30 07:31:00,
2013-03-30 03:36:00,34.4,29.5,30.19,NNE,12,0.0,0.0,82,0.00,,FEW120,0.00,VWS V14.01,2013-03-30 07:36:00,
2013-03-30 03:41:00,34.3,29.4,30.19,NNE,12,0.0,0.0,82,0.00,,FEW120,0.00,VWS V14.01,2013-03-30 07:41:00,
2013-03-30 03:46:00,33.8,29.2,30.19,NNE,12,0.0,0.0,83,0.00,,FEW120,0.00,VWS V14.01,2013-03-30 07:46:00,
2013-03-30 03:51:00,33.5,28.9,30.19,NNE,12,0.0,0.0,83,0.00,,FEW120,0.00,VWS V14.01,2013-03-30 07:51:00,
2013-03-30 03:56:00,33.2,28.6,30.19,NNE,12,0.0,0.0,83,0.00,,FEW120,0.00,VWS V14.01,2013-03-30 07:56:00,
2013-03-30 04:00:00,33.1,28.8,30.19,NNE,12,0.0,0.0,84,0.00,,OVC085,0.00,VWS V14.01,2013-03-30 08:00:00,
2013-03-30 04:01:00,33.0,28.7,30.19,NNE,12,0.0,0.0,84,0.00,,CLR,0.00,VWS V14.01,2013-03-30 08:01:00,
2013-03-30 04:06:00,33.0,28.4,30.19,NNE,12,0.0,0.0,83,0.00,,CLR,0.00,VWS V14.01,2013-03-30 08:06:00,
2013-03-30 04:11:00,32.9,28.3,30.19,NNE,12,0.0,0.0,83,0.00,,CLR,0.00,VWS V14.01,2013-03-30 08:11:00,
2013-03-30 04:16:00,32.6,28.3,30.19,NNE,12,0.0,0.0,84,0.00,,CLR,0.00,VWS V14.01,2013-03-30 08:16:00,
2013-03-30 04:21:00,32.3,28.6,30.19,NNE,12,0.0,0.0,86,0.00,,CLR,0.00,VWS V14.01,2013-03-30 08:21:00,
2013-03-30 04:26:00,32.1,28.7,30.20,NNE,12,0.0,0.0,87,0.00,,CLR,0.00,VWS V14.01,2013-03-30 08:26:00,
2013-03-30 04:30:00,32.0,28.6,30.19,NNE,12,0.0,0.0,87,0.00,,OVC085,0.00,VWS V14.01,2013-03-30 08:30:00,
2013-03-30 04:31:00,32.0,28.6,30.19,NNE,12,0.0,0.0,87,0.00,,CLR,0.00,VWS V14.01,2013-03-30 08:31:00,
2013-03-30 04:36:00,32.1,29.0,30.19,NNE,12,0.0,0.0,88,0.00,,CLR,0.00,VWS V14.01,2013-03-30 08:36:00,
2013-03-30 04:41:00,32.3,28.3,30.19,NNE,12,0.0,0.0,85,0.00,,CLR,0.00,VWS V14.01,2013-03-30 08:41:00,
2013-03-30 04:46:00,32.6,28.6,30.19,NNE,12,0.0,0.0,85,0.00,,CLR,0.00,VWS V14.01,2013-03-30 08:46:00,
2013-03-30 04:51:00,32.8,28.8,30.19,NNE,12,0.0,0.0,85,0.00,,CLR,0.00,VWS V14.01,2013-03-30 08:51:00,
2013-03-30 04:56:00,32.9,28.9,30.19,NNE,12,0.0,0.0,85,0.00,,CLR,0.00,VWS V14.01,2013-03-30 08:56:00,
2013-03-30 05:00:00,33.0,28.7,30.19,NNE,12,0.0,0.0,84,0.00,,OVC085,0.00,VWS V14.01,2013-03-30 09:00:00,
2013-03-30 05:01:00,32.9,28.9,30.19,NNE,12,0.0,0.0,85,0.00,,BKN100,0.00,VWS V14.01,2013-03-30 09:01:00,
2013-03-30 05:06:00,32.9,28.9,30.19,NNE,12,0.0,0.0,85,0.00,,BKN100,0.00,VWS V14.01,2013-03-30 09:06:00,
2013-03-30 05:11:00,32.7,28.7,30.19,NNE,12,0.0,0.0,85,0.00,,BKN100,0.00,VWS V14.01,2013-03-30 09:11:00,
2013-03-30 05:16:00,32.9,29.5,30.19,NNE,12,0.0,0.0,87,0.00,,BKN100,0.00,VWS V14.01,2013-03-30 09:16:00,
2013-03-30 05:21:00,33.0,29.3,30.19,NNE,12,0.0,0.0,86,0.00,,BKN100,0.00,VWS V14.01,2013-03-30 09:21:00,
2013-03-30 05:26:00,33.0,29.6,30.19,NNE,12,0.0,0.0,87,0.00,,BKN100,0.00,VWS V14.01,2013-03-30 09:26:00,
2013-03-30 05:30:00,33.1,29.7,30.19,NNE,12,0.0,0.0,87,0.00,,OVC085,0.00,VWS V14.01,2013-03-30 09:30:00,
2013-03-30 05:31:00,33.1,29.7,30.19,NNE,12,0.0,0.0,87,0.00,,BKN100,0.00,VWS V14.01,2013-03-30 09:31:00,
2013-03-30 05:34:00,33.2,29.8,30.19,NNE,12,0.0,0.0,87,0.00,,BKN100,0.00,VWS V14.01,2013-03-30 09:34:00,
2013-03-30 05:39:00,33.2,29.5,30.20,NNE,12,0.0,0.0,86,0.00,,BKN100,0.00,VWS V14.01,2013-03-30 09:39:00,
2013-03-30 05:44:00,33.3,29.6,30.20,North,11,0.0,0.0,86,0.00,,BKN100,0.00,VWS V14.01,2013-03-30 09:44:00,
2013-03-30 05:49:00,33.5,29.5,30.20,North,11,0.0,0.0,85,0.00,,BKN100,0.00,VWS V14.01,2013-03-30 09:49:00,
2013-03-30 05:54:00,33.9,29.6,30.20,North,11,0.0,0.0,84,0.00,,BKN100,0.00,VWS V14.01,2013-03-30 09:54:00,
2013-03-30 05:59:00,34.2,29.9,30.20,North,11,0.0,0.0,84,0.00,,BKN100,0.00,VWS V14.01,2013-03-30 09:59:00,
2013-03-30 06:00:00,34.2,29.9,30.20,North,11,0.0,0.0,84,0.00,,OVC085,0.00,VWS V14.01,2013-03-30 10:00:00,
2013-03-30 06:04:00,34.5,30.2,30.20,North,11,0.0,0.0,84,0.00,,BKN100,0.00,VWS V14.01,2013-03-30 10:04:00,
2013-03-30 06:09:00,34.7,30.1,30.20,North,11,0.0,0.0,83,0.00,,BKN100,0.00,VWS V14.01,2013-03-30 10:09:00,
2013-03-30 06:14:00,35.0,30.4,30.20,North,11,0.0,0.0,83,0.00,,BKN100,0.00,VWS V14.01,2013-03-30 10:14:00,
2013-03-30 06:19:00,35.1,30.2,30.20,North,11,0.0,0.0,82,0.00,,BKN100,0.00,VWS V14.01,2013-03-30 10:19:00,
2013-03-30 06:24:00,35.5,30.0,30.20,North,11,0.0,0.0,80,0.00,,BKN100,0.00,VWS V14.01,2013-03-30 10:24:00,
2013-03-30 06:29:00,35.8,29.6,30.21,North,11,0.0,0.0,78,0.00,,BKN100,0.00,VWS V14.01,2013-03-30 10:29:00,
2013-03-30 06:30:00,35.8,29.6,30.21,North,11,0.0,0.0,78,0.00,,OVC085,0.00,VWS V14.01,2013-03-30 10:30:00,
2013-03-30 06:34:00,36.2,30.0,30.20,North,11,0.0,0.0,78,0.00,,BKN100,0.00,VWS V14.01,2013-03-30 10:34:00,
2013-03-30 06:39:00,36.5,30.0,30.21,North,11,0.0,0.0,77,0.00,,BKN100,0.00,VWS V14.01,2013-03-30 10:39:00,
2013-03-30 06:44:00,36.7,31.1,30.21,North,11,0.0,0.0,80,0.00,,BKN100,0.00,VWS V14.01,2013-03-30 10:44:00,
2013-03-30 06:49:00,36.6,31.3,30.21,North,11,0.0,0.0,81,0.00,,BKN100,0.00,VWS V14.01,2013-03-30 10:49:00,
2013-03-30 06:54:00,36.5,31.2,30.21,North,11,0.0,0.0,81,0.00,,BKN100,0.00,VWS V14.01,2013-03-30 10:54:00,
2013-03-30 06:59:00,36.4,30.8,30.21,North,11,0.0,0.0,80,0.00,,BKN100,0.00,VWS V14.01,2013-03-30 10:59:00,
2013-03-30 07:00:00,36.4,30.5,30.21,North,11,0.0,0.0,79,0.00,,OVC085,0.00,VWS V14.01,2013-03-30 11:00:00,
2013-03-30 07:04:00,36.6,30.4,30.21,North,11,0.0,0.0,78,0.00,,OVC100,0.00,VWS V14.01,2013-03-30 11:04:00,
2013-03-30 07:09:00,37.1,30.6,30.22,North,11,0.0,0.0,77,0.00,,OVC100,0.00,VWS V14.01,2013-03-30 11:09:00,
2013-03-30 07:14:00,37.5,30.3,30.21,North,11,0.0,0.0,75,0.00,,OVC100,0.00,VWS V14.01,2013-03-30 11:14:00,
2013-03-30 07:19:00,37.7,30.5,30.22,North,11,0.0,0.0,75,0.00,,OVC100,0.00,VWS V14.01,2013-03-30 11:19:00,
2013-03-30 07:24:00,37.9,31.4,30.22,North,11,0.0,0.0,77,0.00,,OVC100,0.00,VWS V14.01,2013-03-30 11:24:00,
2013-03-30 07:29:00,37.8,31.9,30.22,North,11,0.0,0.0,79,0.00,,OVC100,0.00,VWS V14.01,2013-03-30 11:29:00,
2013-03-30 07:30:00,37.8,31.9,30.22,North,11,0.0,0.0,79,0.00,,OVC085,0.00,VWS V14.01,2013-03-30 11:30:00,
2013-03-30 07:34:00,37.6,32.3,30.22,North,11,0.0,0.0,81,0.00,,OVC100,0.00,VWS V14.01,2013-03-30 11:34:00,
2013-03-30 07:39:00,37.4,32.4,30.22,North,11,0.0,0.0,82,0.00,,OVC100,0.00,VWS V14.01,2013-03-30 11:39:00,
2013-03-30 07:44:00,37.1,32.1,30.23,North,11,0.0,0.0,82,0.00,,OVC100,0.00,VWS V14.01,2013-03-30 11:44:00,
2013-03-30 07:49:00,37.1,30.9,30.22,North,11,0.0,0.0,78,0.00,,OVC100,0.00,VWS V14.01,2013-03-30 11:49:00,
2013-03-30 07:54:00,37.5,31.3,30.23,North,11,0.0,0.0,78,0.00,,OVC100,0.00,VWS V14.01,2013-03-30 11:54:00,
2013-03-30 07:59:00,37.9,31.4,30.23,North,11,0.0,0.0,77,0.00,,OVC100,0.00,VWS V14.01,2013-03-30 11:59:00,
2013-03-30 08:00:00,37.8,30.9,30.23,North,11,0.0,0.0,76,0.00,,OVC085,0.00,VWS V14.01,2013-03-30 12:00:00,
2013-03-30 08:04:00,38.2,32.0,30.23,North,11,0.0,0.0,78,0.00,,OVC095,0.00,VWS V14.01,2013-03-30 12:04:00,
2013-03-30 08:09:00,38.6,33.9,30.23,North,11,0.0,0.0,83,0.00,,OVC095,0.00,VWS V14.01,2013-03-30 12:09:00,
2013-03-30 08:14:00,39.0,33.4,30.23,North,11,0.0,0.0,80,0.00,,OVC095,0.00,VWS V14.01,2013-03-30 12:14:00,
2013-03-30 08:19:00,39.5,33.5,30.23,North,11,0.0,0.0,79,0.00,,OVC095,0.00,VWS V14.01,2013-03-30 12:19:00,
2013-03-30 08:24:00,40.0,34.0,30.23,North,11,0.0,0.0,79,0.00,,OVC095,0.00,VWS V14.01,2013-03-30 12:24:00,
2013-03-30 08:29:00,40.5,35.8,30.23,North,11,0.0,0.0,83,0.00,,OVC095,0.00,VWS V14.01,2013-03-30 12:29:00,
2013-03-30 08:30:00,40.5,35.8,30.23,North,11,0.0,0.0,83,0.00,,OVC085,0.00,VWS V14.01,2013-03-30 12:30:00,
2013-03-30 08:34:00,41.1,35.1,30.24,North,11,0.0,0.0,79,0.00,,OVC095,0.00,VWS V14.01,2013-03-30 12:34:00,
2013-03-30 08:39:00,41.7,34.0,30.23,North,11,0.0,0.0,74,0.00,,OVC095,0.00,VWS V14.01,2013-03-30 12:39:00,
2013-03-30 08:44:00,42.1,34.1,30.23,North,11,0.0,0.0,73,0.00,,OVC095,0.00,VWS V14.01,2013-03-30 12:44:00,
2013-03-30 08:49:00,42.6,34.6,30.24,North,11,0.0,0.0,73,0.00,,OVC095,0.00,VWS V14.01,2013-03-30 12:49:00,
2013-03-30 08:54:00,43.2,35.1,30.24,North,11,0.0,0.0,73,0.00,,OVC095,0.00,VWS V14.01,2013-03-30 12:54:00,
2013-03-30 08:59:00,44.1,34.6,30.24,North,11,0.0,1.0,69,0.00,,OVC095,0.00,VWS V14.01,2013-03-30 12:59:00,
2013-03-30 09:00:00,44.2,34.7,30.24,North,11,0.0,1.0,69,0.00,,OVC085,0.00,VWS V14.01,2013-03-30 13:00:00,
2013-03-30 09:04:00,45.1,35.9,30.24,North,11,1.0,1.0,70,0.00,,BKN095,0.00,VWS V14.01,2013-03-30 13:04:00,
2013-03-30 09:09:00,46.0,36.0,30.24,NNW,331,0.0,2.0,68,0.00,,BKN095,0.00,VWS V14.01,2013-03-30 13:09:00,
2013-03-30 09:14:00,46.8,34.9,30.24,NW,322,0.0,2.0,63,0.00,,BKN095,0.00,VWS V14.01,2013-03-30 13:14:00,
2013-03-30 09:19:00,47.1,34.4,30.24,NW,322,0.0,2.0,61,0.00,,BKN095,0.00,VWS V14.01,2013-03-30 13:19:00,
2013-03-30 09:24:00,47.5,34.7,30.24,NNW,328,0.0,2.0,61,0.00,,BKN095,0.00,VWS V14.01,2013-03-30 13:24:00,
2013-03-30 09:29:00,48.1,35.7,30.24,NNW,328,0.0,2.0,62,0.00,,BKN095,0.00,VWS V14.01,2013-03-30 13:29:00,
2013-03-30 09:30:00,48.1,35.7,30.24,NNW,328,0.0,2.0,62,0.00,,OVC085,0.00,VWS V14.01,2013-03-30 13:30:00,
2013-03-30 09:34:00,48.7,36.3,30.24,WNW,302,0.0,1.0,62,0.00,,BKN095,0.00,VWS V14.01,2013-03-30 13:34:00,
2013-03-30 09:39:00,49.5,36.6,30.24,WSW,252,2.0,3.0,61,0.00,,BKN095,0.00,VWS V14.01,2013-03-30 13:39:00,
2013-03-30 09:44:00,50.2,36.0,30.24,West,267,0.0,3.0,58,0.00,,BKN095,0.00,VWS V14.01,2013-03-30 13:44:00,
2013-03-30 09:49:00,50.7,36.0,30.24,SW,230,0.0,3.0,57,0.00,,BKN095,0.00,VWS V14.01,2013-03-30 13:49:00,
2013-03-30 09:54:00,51.2,35.1,30.24,SW,230,0.0,3.0,54,0.00,,BKN095,0.00,VWS V14.01,2013-03-30 13:54:00,
2013-03-30 09:59:00,51.9,35.3,30.24,South,171,1.0,3.0,53,0.00,,BKN095,0.00,VWS V14.01,2013-03-30 13:59:00,
2013-03-30 10:00:00,51.9,35.3,30.24,South,171,1.0,3.0,53,0.00,,OVC085,0.00,VWS V14.01,2013-03-30 14:00:00,
2013-03-30 10:04:00,52.7,31.4,30.24,SE,144,1.0,3.0,44,0.00,,FEW095,0.00,VWS V14.01,2013-03-30 14:04:00,
2013-03-30 10:09:00,53.2,32.4,30.24,SE,138,0.0,3.0,45,0.00,,FEW095,0.00,VWS V14.01,2013-03-30 14:09:00,
2013-03-30 10:14:00,53.7,31.8,30.24,SE,129,0.0,3.0,43,0.00,,FEW095,0.00,VWS V14.01,2013-03-30 14:14:00,
2013-03-30 10:19:00,54.0,29.0,30.24,SE,129,1.0,3.0,38,0.00,,FEW095,0.00,VWS V14.01,2013-03-30 14:19:00,
2013-03-30 10:24:00,54.7,33.2,30.24,NE,40,0.0,3.0,44,0.00,,FEW095,0.00,VWS V14.01,2013-03-30 14:24:00,
2013-03-30 10:29:00,55.1,31.2,30.24,SE,140,0.0,4.0,40,0.00,,FEW095,0.00,VWS V14.01,2013-03-30 14:29:00,
2013-03-30 10:30:00,55.1,31.2,30.24,SE,140,0.0,4.0,40,0.00,,OVC085,0.00,VWS V14.01,2013-03-30 14:30:00,
2013-03-30 10:34:00,55.3,31.4,30.24,WNW,298,0.0,3.0,40,0.00,,FEW095,0.00,VWS V14.01,2013-03-30 14:34:00,
2013-03-30 10:39:00,55.0,31.1,30.24,WSW,257,4.0,5.0,40,0.00,,FEW095,0.00,VWS V14.01,2013-03-30 14:39:00,
2013-03-30 10:44:00,55.0,31.8,30.23,NNW,327,2.0,5.0,41,0.00,,FEW095,0.00,VWS V14.01,2013-03-30 14:44:00,
2013-03-30 10:49:00,55.3,32.0,30.23,WNW,298,1.0,5.0,41,0.00,,FEW095,0.00,VWS V14.01,2013-03-30 14:49:00,
2013-03-30 10:54:00,55.5,32.2,30.23,West,277,2.0,5.0,41,0.00,,FEW095,0.00,VWS V14.01,2013-03-30 14:54:00,
2013-03-30 10:59:00,55.7,33.6,30.23,NE,56,2.0,5.0,43,0.00,,FEW095,0.00,VWS V14.01,2013-03-30 14:59:00,
2013-03-30 11:00:00,55.8,33.1,30.23,NE,56,1.0,5.0,42,0.00,,OVC085,0.00,VWS V14.01,2013-03-30 15:00:00,
2013-03-30 11:04:00,56.3,31.7,30.23,NE,48,1.0,3.0,39,0.00,,CLR,0.00,VWS V14.01,2013-03-30 15:04:00,
2013-03-30 11:09:00,56.7,32.0,30.22,NNE,27,2.0,5.0,39,0.00,,CLR,0.00,VWS V14.01,2013-03-30 15:09:00,
2013-03-30 11:14:00,56.8,30.8,30.22,WSW,248,0.0,5.0,37,0.00,,CLR,0.00,VWS V14.01,2013-03-30 15:14:00,
2013-03-30 11:19:00,56.9,32.2,30.22,NNW,327,1.0,5.0,39,0.00,,CLR,0.00,VWS V14.01,2013-03-30 15:19:00,
2013-03-30 11:24:00,56.8,31.5,30.22,WNW,299,0.0,5.0,38,0.00,,CLR,0.00,VWS V14.01,2013-03-30 15:24:00,
2013-03-30 11:29:00,57.1,33.6,30.22,NE,49,1.0,5.0,41,0.00,,CLR,0.00,VWS V14.01,2013-03-30 15:29:00,
2013-03-30 11:30:00,57.1,33.6,30.22,NE,49,1.0,5.0,41,0.00,,OVC085,0.00,VWS V14.01,2013-03-30 15:30:00,
2013-03-30 11:34:00,57.8,34.3,30.22,NNE,24,1.0,4.0,41,0.00,,CLR,0.00,VWS V14.01,2013-03-30 15:34:00,
2013-03-30 11:39:00,57.9,33.1,30.22,NE,50,3.0,4.0,39,0.00,,CLR,0.00,VWS V14.01,2013-03-30 15:39:00,
2013-03-30 11:44:00,58.2,30.7,30.21,North,5,2.0,4.0,35,0.00,,CLR,0.00,VWS V14.01,2013-03-30 15:44:00,
2013-03-30 11:49:00,58.2,31.4,30.21,WNW,293,2.0,4.0,36,0.00,,CLR,0.00,VWS V14.01,2013-03-30 15:49:00,
2013-03-30 11:54:00,58.1,31.3,30.21,NNE,22,3.0,4.0,36,0.00,,CLR,0.00,VWS V14.01,2013-03-30 15:54:00,
2013-03-30 11:59:00,58.2,31.4,30.21,NNE,32,2.0,4.0,36,0.00,,CLR,0.00,VWS V14.01,2013-03-30 15:59:00,
2013-03-30 12:00:00,58.2,31.4,30.21,NNE,32,2.0,4.0,36,0.00,,OVC085,0.00,VWS V14.01,2013-03-30 16:00:00,
2013-03-30 12:04:00,58.5,32.3,30.20,SSW,211,2.0,2.0,37,0.00,,CLR,0.00,VWS V14.01,2013-03-30 16:04:00,
2013-03-30 12:09:00,58.4,32.2,30.19,NE,42,3.0,4.0,37,0.00,,CLR,0.00,VWS V14.01,2013-03-30 16:09:00,
2013-03-30 12:14:00,58.7,31.1,30.19,NE,51,0.0,5.0,35,0.00,,CLR,0.00,VWS V14.01,2013-03-30 16:14:00,
2013-03-30 12:19:00,58.8,32.6,30.19,NNW,338,0.0,5.0,37,0.00,,CLR,0.00,VWS V14.01,2013-03-30 16:19:00,
2013-03-30 12:24:00,59.1,32.2,30.19,SSW,193,0.0,5.0,36,0.00,,CLR,0.00,VWS V14.01,2013-03-30 16:24:00,
2013-03-30 12:29:00,59.6,34.6,30.18,East,83,1.0,5.0,39,0.00,,CLR,0.00,VWS V14.01,2013-03-30 16:29:00,
2013-03-30 12:30:00,59.6,34.6,30.18,East,83,1.0,5.0,39,0.00,,OVC085,0.00,VWS V14.01,2013-03-30 16:30:00,
2013-03-30 12:34:00,59.5,33.9,30.18,South,181,0.0,4.0,38,0.00,,CLR,0.00,VWS V14.01,2013-03-30 16:34:00,
2013-03-30 12:39:00,59.5,32.5,30.18,NNE,19,0.0,4.0,36,0.00,,CLR,0.00,VWS V14.01,2013-03-30 16:39:00,
2013-03-30 12:44:00,59.5,31.1,30.18,North,9,2.0,5.0,34,0.00,,CLR,0.00,VWS V14.01,2013-03-30 16:44:00,
2013-03-30 12:49:00,59.7,32.7,30.18,NE,36,1.0,5.0,36,0.00,,CLR,0.00,VWS V14.01,2013-03-30 16:49:00,
2013-03-30 12:54:00,59.9,32.2,30.17,WSW,244,4.0,6.0,35,0.00,,CLR,0.00,VWS V14.01,2013-03-30 16:54:00,
2013-03-30 12:59:00,59.4,31.0,30.17,South,190,3.0,6.0,34,0.00,,CLR,0.00,VWS V14.01,2013-03-30 16:59:00,
2013-03-30 13:00:00,59.4,31.0,30.17,SSW,194,4.0,6.0,34,0.00,,OVC085,0.00,VWS V14.01,2013-03-30 17:00:00,
2013-03-30 13:04:00,59.3,30.2,30.17,WSW,254,1.0,8.0,33,0.00,,CLR,0.00,VWS V14.01,2013-03-30 17:04:00,
2013-03-30 13:09:00,59.3,31.0,30.16,South,169,4.0,8.0,34,0.00,,CLR,0.00,VWS V14.01,2013-03-30 17:09:00,
2013-03-30 13:14:00,59.6,31.9,30.16,SSE,165,6.0,8.0,35,0.00,,CLR,0.00,VWS V14.01,2013-03-30 17:14:00,
2013-03-30 13:19:00,59.6,31.2,30.16,SW,229,4.0,9.0,34,0.00,,CLR,0.00,VWS V14.01,2013-03-30 17:19:00,
2013-03-30 13:24:00,59.7,33.4,30.16,SW,232,6.0,9.0,37,0.00,,CLR,0.00,VWS V14.01,2013-03-30 17:24:00,
2013-03-30 13:29:00,60.1,32.4,30.15,WNW,298,2.0,2.0,35,0.00,,CLR,0.00,VWS V14.01,2013-03-30 17:29:00,
2013-03-30 13:30:00,60.0,32.3,30.15,WNW,298,2.0,9.0,35,0.00,,OVC085,0.00,VWS V14.01,2013-03-30 17:30:00,
2013-03-30 13:34:00,60.7,32.9,30.15,NW,315,3.0,4.0,35,0.00,,CLR,0.00,VWS V14.01,2013-03-30 17:34:00,
2013-03-30 13:39:00,60.8,31.5,30.15,WNW,286,6.0,7.0,33,0.00,,CLR,0.00,VWS V14.01,2013-03-30 17:39:00,
2013-03-30 13:44:00,60.5,30.5,30.16,West,259,8.0,13.0,32,0.00,,CLR,0.00,VWS V14.01,2013-03-30 17:44:00,
2013-03-30 13:49:00,60.5,30.5,30.16,WNW,284,4.0,13.0,32,0.00,,CLR,0.00,VWS V14.01,2013-03-30 17:49:00,
2013-03-30 13:54:00,60.8,31.5,30.16,SW,219,4.0,13.0,33,0.00,,CLR,0.00,VWS V14.01,2013-03-30 17:54:00,
2013-03-30 13:59:00,60.8,30.8,30.15,WSW,253,5.0,13.0,32,0.00,,CLR,0.00,VWS V14.01,2013-03-30 17:59:00,
2013-03-30 14:00:00,60.8,30.8,30.15,WSW,253,5.0,13.0,32,0.00,,OVC085,0.00,VWS V14.01,2013-03-30 18:00:00,
2013-03-30 14:04:00,61.1,31.8,30.14,SSW,211,6.0,11.0,33,0.00,,CLR,0.00,VWS V14.01,2013-03-30 18:04:00,
2013-03-30 14:09:00,60.9,30.9,30.14,SSE,148,6.0,11.0,32,0.00,,CLR,0.00,VWS V14.01,2013-03-30 18:09:00,
2013-03-30 14:14:00,61.1,31.0,30.13,SE,132,2.0,11.0,32,0.00,,CLR,0.00,VWS V14.01,2013-03-30 18:14:00,
2013-03-30 14:19:00,61.8,33.2,30.13,WNW,294,3.0,11.0,34,0.00,,CLR,0.00,VWS V14.01,2013-03-30 18:19:00,
2013-03-30 14:24:00,62.1,33.4,30.12,ESE,118,4.0,12.0,34,0.00,,CLR,0.00,VWS V14.01,2013-03-30 18:24:00,
2013-03-30 14:29:00,62.2,32.0,30.13,SSW,208,7.0,7.0,32,0.00,,CLR,0.00,VWS V14.01,2013-03-30 18:29:00,
2013-03-30 14:30:00,62.2,31.2,30.13,SW,229,4.0,12.0,31,0.00,,OVC085,0.00,VWS V14.01,2013-03-30 18:30:00,
2013-03-30 14:34:00,61.8,30.9,30.13,South,183,5.0,7.0,31,0.00,,CLR,0.00,VWS V14.01,2013-03-30 18:34:00,
2013-03-30 14:39:00,61.5,29.8,30.12,ESE,115,0.0,8.0,30,0.00,,CLR,0.00,VWS V14.01,2013-03-30 18:39:00,
2013-03-30 14:44:00,62.0,31.8,30.13,NW,319,3.0,8.0,32,0.00,,CLR,0.00,VWS V14.01,2013-03-30 18:44:00,
2013-03-30 14:49:00,62.3,32.1,30.12,NW,326,3.0,8.0,32,0.00,,CLR,0.00,VWS V14.01,2013-03-30 18:49:00,
2013-03-30 14:54:00,62.3,30.5,30.12,West,275,3.0,8.0,30,0.00,,CLR,0.00,VWS V14.01,2013-03-30 18:54:00,
2013-03-30 14:59:00,62.2,30.4,30.12,WSW,244,3.0,3.0,30,0.00,,CLR,0.00,VWS V14.01,2013-03-30 18:59:00,
2013-03-30 15:00:00,62.2,30.4,30.12,SW,236,2.0,8.0,30,0.00,,OVC085,0.00,VWS V14.01,2013-03-30 19:00:00,
2013-03-30 15:04:00,62.3,31.3,30.12,South,188,4.0,8.0,31,0.00,,CLR,0.00,VWS V14.01,2013-03-30 19:04:00,
2013-03-30 15:10:00,62.6,29.1,30.12,SE,132,4.0,14.0,28,0.00,,CLR,0.00,VWS V14.01,2013-03-30 19:10:00,
2013-03-30 15:15:00,62.3,27.9,30.11,WNW,303,5.0,14.0,27,0.00,,CLR,0.00,VWS V14.01,2013-03-30 19:15:00,
2013-03-30 15:20:00,62.6,31.6,30.11,West,268,4.0,14.0,31,0.00,,CLR,0.00,VWS V14.01,2013-03-30 19:20:00,
2013-03-30 15:25:00,62.6,29.1,30.11,WSW,245,2.0,14.0,28,0.00,,CLR,0.00,VWS V14.01,2013-03-30 19:25:00,
2013-03-30 15:30:00,63.0,31.9,30.10,SSE,157,3.0,6.0,31,0.00,,CLR,0.00,VWS V14.01,2013-03-30 19:30:00,
2013-03-30 15:35:00,62.8,29.2,30.10,SSW,203,6.0,9.0,28,0.00,,CLR,0.00,VWS V14.01,2013-03-30 19:35:00,
2013-03-30 15:40:00,62.7,30.0,30.10,SSE,150,0.0,9.0,29,0.00,,CLR,0.00,VWS V14.01,2013-03-30 19:40:00,
2013-03-30 15:45:00,63.3,32.2,30.10,SSW,210,4.0,9.0,31,0.00,,CLR,0.00,VWS V14.01,2013-03-30 19:45:00,
2013-03-30 15:50:00,63.0,30.3,30.09,SE,142,4.0,9.0,29,0.00,,CLR,0.00,VWS V14.01,2013-03-30 19:50:00,
2013-03-30 15:55:00,63.5,29.8,30.09,SE,133,16.0,16.0,28,0.00,,CLR,0.00,VWS V14.01,2013-03-30 19:55:00,
2013-03-30 16:00:00,63.8,30.1,30.09,SE,144,1.0,4.0,28,0.00,,CLR,0.00,VWS V14.01,2013-03-30 20:00:00,
2013-03-30 16:05:00,64.0,30.3,30.09,SSW,206,7.0,12.0,28,0.00,,CLR,0.00,VWS V14.01,2013-03-30 20:05:00,
2013-03-30 16:10:00,63.9,30.2,30.09,WNW,292,0.0,12.0,28,0.00,,CLR,0.00,VWS V14.01,2013-03-30 20:10:00,
2013-03-30 16:15:00,63.9,30.2,30.09,SSW,197,5.0,12.0,28,0.00,,CLR,0.00,VWS V14.01,2013-03-30 20:15:00,
2013-03-30 16:20:00,64.1,30.4,30.09,WNW,298,2.0,12.0,28,0.00,,CLR,0.00,VWS V14.01,2013-03-30 20:20:00,
2013-03-30 16:25:00,64.5,29.8,30.08,SSW,202,1.0,12.0,27,0.00,,CLR,0.00,VWS V14.01,2013-03-30 20:25:00,
2013-03-30 16:30:00,64.3,31.4,30.08,SSW,209,9.0,12.0,29,0.00,,CLR,0.00,VWS V14.01,2013-03-30 20:30:00,
2013-03-30 16:35:00,64.1,29.5,30.08,ESE,108,3.0,12.0,27,0.00,,CLR,0.00,VWS V14.01,2013-03-30 20:35:00,
2013-03-30 16:40:00,64.4,31.5,30.08,SE,125,7.0,12.0,29,0.00,,CLR,0.00,VWS V14.01,2013-03-30 20:40:00,
2013-03-30 16:45:00,64.1,29.5,30.08,SSW,209,2.0,12.0,27,0.00,,CLR,0.00,VWS V14.01,2013-03-30 20:45:00,
2013-03-30 16:50:00,64.1,30.4,30.07,ESE,117,1.0,12.0,28,0.00,,CLR,0.00,VWS V14.01,2013-03-30 20:50:00,
2013-03-30 16:55:00,64.5,30.7,30.07,SSE,156,11.0,12.0,28,0.00,,CLR,0.00,VWS V14.01,2013-03-30 20:55:00,
2013-03-30 17:00:00,64.4,29.7,30.07,SSE,153,5.0,10.0,27,0.00,,CLR,0.00,VWS V14.01,2013-03-30 21:00:00,
2013-03-30 17:05:00,64.6,29.0,30.07,SSE,161,5.0,13.0,26,0.00,,CLR,0.00,VWS V14.01,2013-03-30 21:05:00,
2013-03-30 17:10:00,64.7,29.0,30.07,SSE,157,10.0,13.0,26,0.00,,CLR,0.00,VWS V14.01,2013-03-30 21:10:00,
2013-03-30 17:15:00,64.6,29.9,30.07,WSW,253,7.0,13.0,27,0.00,,CLR,0.00,VWS V14.01,2013-03-30 21:15:00,
2013-03-30 17:20:00,64.2,28.6,30.07,West,272,10.0,13.0,26,0.00,,CLR,0.00,VWS V14.01,2013-03-30 21:20:00,
2013-03-30 17:25:00,64.5,29.8,30.07,WSW,244,6.0,13.0,27,0.00,,CLR,0.00,VWS V14.01,2013-03-30 21:25:00,
2013-03-30 17:30:00,64.5,29.8,30.07,SSW,195,2.0,4.0,27,0.00,,CLR,0.00,VWS V14.01,2013-03-30 21:30:00,
2013-03-30 17:35:00,64.6,29.0,30.07,SSE,163,4.0,4.0,26,0.00,,CLR,0.00,VWS V14.01,2013-03-30 21:35:00,
2013-03-30 17:40:00,64.4,28.8,30.07,SSE,157,5.0,6.0,26,0.00,,CLR,0.00,VWS V14.01,2013-03-30 21:40:00,
2013-03-30 17:45:00,64.5,27.9,30.07,WSW,239,3.0,11.0,25,0.00,,CLR,0.00,VWS V14.01,2013-03-30 21:45:00,
2013-03-30 17:50:00,64.6,29.0,30.07,SW,236,1.0,11.0,26,0.00,,CLR,0.00,VWS V14.01,2013-03-30 21:50:00,
2013-03-30 17:55:00,64.9,31.0,30.07,South,178,0.0,11.0,28,0.00,,CLR,0.00,VWS V14.01,2013-03-30 21:55:00,
2013-03-30 18:00:00,65.0,29.3,30.07,SE,138,6.0,7.0,26,0.00,,CLR,0.00,VWS V14.01,2013-03-30 22:00:00,
2013-03-30 18:05:00,64.7,29.0,30.07,South,180,5.0,12.0,26,0.00,,CLR,0.00,VWS V14.01,2013-03-30 22:05:00,
2013-03-30 18:10:00,64.4,29.7,30.07,South,187,6.0,12.0,27,0.00,,CLR,0.00,VWS V14.01,2013-03-30 22:10:00,
2013-03-30 18:15:00,64.1,27.6,30.07,ESE,115,1.0,12.0,25,0.00,,CLR,0.00,VWS V14.01,2013-03-30 22:15:00,
2013-03-30 18:20:00,63.7,29.1,30.07,SSE,165,4.0,12.0,27,0.00,,CLR,0.00,VWS V14.01,2013-03-30 22:20:00,
2013-03-30 18:25:00,63.2,29.6,30.07,SE,142,5.0,12.0,28,0.00,,CLR,0.00,VWS V14.01,2013-03-30 22:25:00,
2013-03-30 18:30:00,62.9,29.3,30.07,South,171,1.0,6.0,28,0.00,,CLR,0.00,VWS V14.01,2013-03-30 22:30:00,
2013-03-30 18:35:00,62.8,29.2,30.07,SSE,161,3.0,8.0,28,0.00,,CLR,0.00,VWS V14.01,2013-03-30 22:35:00,
2013-03-30 18:40:00,62.7,30.0,30.07,SSE,167,4.0,8.0,29,0.00,,CLR,0.00,VWS V14.01,2013-03-30 22:40:00,
2013-03-30 18:45:00,62.5,29.8,30.07,SSE,159,5.0,8.0,29,0.00,,CLR,0.00,VWS V14.01,2013-03-30 22:45:00,
2013-03-30 18:50:00,62.3,29.7,30.07,SSE,159,4.0,8.0,29,0.00,,CLR,0.00,VWS V14.01,2013-03-30 22:50:00,
2013-03-30 18:55:00,62.2,29.6,30.07,SE,138,2.0,8.0,29,0.00,,CLR,0.00,VWS V14.01,2013-03-30 22:55:00,
2013-03-30 19:00:00,62.0,29.4,30.07,SE,142,1.0,3.0,29,0.00,,CLR,0.00,VWS V14.01,2013-03-30 23:00:00,
2013-03-30 19:05:00,61.8,30.1,30.07,SE,135,4.0,4.0,30,0.00,,CLR,0.00,VWS V14.01,2013-03-30 23:05:00,
2013-03-30 19:10:00,61.5,29.8,30.08,SSE,149,1.0,4.0,30,0.00,,CLR,0.00,VWS V14.01,2013-03-30 23:10:00,
2013-03-30 19:15:00,61.2,30.4,30.07,SSE,163,2.0,4.0,31,0.00,,CLR,0.00,VWS V14.01,2013-03-30 23:15:00,
2013-03-30 19:20:00,60.8,29.2,30.08,SSE,163,0.0,4.0,30,0.00,,CLR,0.00,VWS V14.01,2013-03-30 23:20:00,
2013-03-30 19:25:00,60.5,29.7,30.08,SSE,162,0.0,4.0,31,0.00,,CLR,0.00,VWS V14.01,2013-03-30 23:25:00,
2013-03-30 19:30:00,60.2,30.2,30.08,SSE,162,0.0,0.0,32,0.00,,CLR,0.00,VWS V14.01,2013-03-30 23:30:00,
2013-03-30 19:35:00,59.9,30.0,30.08,SSE,162,0.0,1.0,32,0.00,,CLR,0.00,VWS V14.01,2013-03-30 23:35:00,
2013-03-30 19:40:00,59.5,30.4,30.08,SSE,162,0.0,1.0,33,0.00,,CLR,0.00,VWS V14.01,2013-03-30 23:40:00,
2013-03-30 19:45:00,59.0,30.0,30.08,SSE,162,0.0,1.0,33,0.00,,CLR,0.00,VWS V14.01,2013-03-30 23:45:00,
2013-03-30 19:50:00,58.5,31.0,30.08,SSE,162,0.0,1.0,35,0.00,,CLR,0.00,VWS V14.01,2013-03-30 23:50:00,
2013-03-30 19:55:00,57.9,30.4,30.08,SSE,162,0.0,1.0,35,0.00,,CLR,0.00,VWS V14.01,2013-03-30 23:55:00,
2013-03-30 20:00:00,57.1,33.0,30.08,SSE,162,0.0,0.0,40,0.00,,CLR,0.00,VWS V14.01,2013-03-31 00:00:00,
2013-03-30 20:05:00,56.4,32.4,30.08,SSE,162,0.0,0.0,40,0.00,,CLR,0.00,VWS V14.01,2013-03-31 00:05:00,
2013-03-30 20:10:00,55.7,30.5,30.08,SSE,162,0.0,0.0,38,0.00,,CLR,0.00,VWS V14.01,2013-03-31 00:10:00,
2013-03-30 20:15:00,55.2,31.3,30.08,SSE,162,0.0,0.0,40,0.00,,CLR,0.00,VWS V14.01,2013-03-31 00:15:00,
2013-03-30 20:20:00,54.7,32.7,30.08,SSE,162,0.0,0.0,43,0.00,,CLR,0.00,VWS V14.01,2013-03-31 00:20:00,
2013-03-30 20:25:00,53.7,36.0,30.08,SSE,162,0.0,0.0,51,0.00,,CLR,0.00,VWS V14.01,2013-03-31 00:25:00,
2013-03-30 20:30:00,52.7,35.6,30.08,SSE,162,0.0,0.0,52,0.00,,CLR,0.00,VWS V14.01,2013-03-31 00:30:00,
2013-03-30 20:35:00,52.0,34.5,30.08,SSE,162,0.0,0.0,51,0.00,,CLR,0.00,VWS V14.01,2013-03-31 00:35:00,
2013-03-30 20:40:00,51.5,34.5,30.08,SSE,162,0.0,0.0,52,0.00,,CLR,0.00,VWS V14.01,2013-03-31 00:40:00,
2013-03-30 20:45:00,51.2,34.7,30.08,SSE,162,0.0,0.0,53,0.00,,CLR,0.00,VWS V14.01,2013-03-31 00:45:00,
2013-03-30 20:50:00,50.9,34.4,30.08,SSE,162,0.0,0.0,53,0.00,,CLR,0.00,VWS V14.01,2013-03-31 00:50:00,
2013-03-30 20:55:00,50.6,34.1,30.08,SSE,162,0.0,0.0,53,0.00,,CLR,0.00,VWS V14.01,2013-03-31 00:55:00,
2013-03-30 21:00:00,50.3,35.7,30.09,SSE,162,0.0,0.0,57,0.00,,CLR,0.00,VWS V14.01,2013-03-31 01:00:00,
2013-03-30 21:05:00,49.9,35.3,30.09,SSE,162,0.0,0.0,57,0.00,,CLR,0.00,VWS V14.01,2013-03-31 01:05:00,
2013-03-30 21:11:00,49.4,34.8,30.08,SSE,162,0.0,0.0,57,0.00,,CLR,0.00,VWS V14.01,2013-03-31 01:11:00,
2013-03-30 21:15:00,49.1,36.2,30.08,SSE,162,0.0,0.0,61,0.00,,CLR,0.00,VWS V14.01,2013-03-31 01:15:00,
2013-03-30 21:21:00,48.7,35.5,30.08,SSE,162,0.0,0.0,60,0.00,,CLR,0.00,VWS V14.01,2013-03-31 01:21:00,
2013-03-30 21:26:00,48.3,35.5,30.08,SSE,162,0.0,0.0,61,0.00,,CLR,0.00,VWS V14.01,2013-03-31 01:26:00,
2013-03-30 21:30:00,48.1,35.7,30.08,SSE,162,0.0,0.0,62,0.00,,OVC085,0.00,VWS V14.01,2013-03-31 01:30:00,
2013-03-30 21:31:00,48.1,36.1,30.08,SSE,162,0.0,0.0,63,0.00,,CLR,0.00,VWS V14.01,2013-03-31 01:31:00,
2013-03-30 21:36:00,47.7,36.9,30.08,SSE,162,0.0,0.0,66,0.00,,CLR,0.00,VWS V14.01,2013-03-31 01:36:00,
2013-03-30 21:41:00,47.4,36.2,30.08,SSE,162,0.0,0.0,65,0.00,,CLR,0.00,VWS V14.01,2013-03-31 01:41:00,
2013-03-30 21:46:00,47.1,36.0,30.08,SSE,162,0.0,0.0,65,0.00,,CLR,0.00,VWS V14.01,2013-03-31 01:46:00,
2013-03-30 21:51:00,46.9,37.3,30.08,SSE,162,0.0,0.0,69,0.00,,CLR,0.00,VWS V14.01,2013-03-31 01:51:00,
2013-03-30 21:56:00,46.6,37.0,30.08,SSE,162,0.0,0.0,69,0.00,,CLR,0.00,VWS V14.01,2013-03-31 01:56:00,
2013-03-30 22:00:00,46.5,36.9,30.08,SSE,162,0.0,0.0,69,0.00,,OVC085,0.00,VWS V14.01,2013-03-31 02:00:00,
2013-03-30 22:01:00,46.4,36.8,30.08,SSE,162,0.0,0.0,69,0.00,,CLR,0.00,VWS V14.01,2013-03-31 02:01:00,
2013-03-30 22:06:00,46.1,37.2,30.08,SSE,162,0.0,0.0,71,0.00,,CLR,0.00,VWS V14.01,2013-03-31 02:06:00,
2013-03-30 22:11:00,45.8,37.3,30.08,SSE,162,0.0,0.0,72,0.00,,CLR,0.00,VWS V14.01,2013-03-31 02:11:00,
2013-03-30 22:16:00,45.5,37.0,30.08,SSE,162,0.0,0.0,72,0.00,,CLR,0.00,VWS V14.01,2013-03-31 02:16:00,
2013-03-30 22:21:00,45.4,36.9,30.08,ESE,115,2.0,5.0,72,0.00,,CLR,0.00,VWS V14.01,2013-03-31 02:21:00,
2013-03-30 22:26:00,45.2,37.1,30.08,SE,128,0.0,6.0,73,0.00,,CLR,0.00,VWS V14.01,2013-03-31 02:26:00,
2013-03-30 22:30:00,45.1,37.0,30.08,East,98,0.0,6.0,73,0.00,,OVC085,0.00,VWS V14.01,2013-03-31 02:30:00,
2013-03-30 22:31:00,45.0,36.9,30.08,East,98,0.0,2.0,73,0.00,,CLR,0.00,VWS V14.01,2013-03-31 02:31:00,
2013-03-30 22:36:00,44.8,36.7,30.08,ESE,106,0.0,4.0,73,0.00,,CLR,0.00,VWS V14.01,2013-03-31 02:36:00,
2013-03-30 22:41:00,44.6,37.2,30.08,ESE,107,0.0,4.0,75,0.00,,CLR,0.00,VWS V14.01,2013-03-31 02:41:00,
2013-03-30 22:46:00,44.4,36.7,30.08,East,94,3.0,4.0,74,0.00,,CLR,0.00,VWS V14.01,2013-03-31 02:46:00,
2013-03-30 22:51:00,44.3,36.5,30.08,SE,130,3.0,4.0,74,0.00,,CLR,0.00,VWS V14.01,2013-03-31 02:51:00,
2013-03-30 22:56:00,44.3,36.9,30.08,ESE,117,2.0,5.0,75,0.00,,CLR,0.00,VWS V14.01,2013-03-31 02:56:00,
2013-03-30 23:00:00,44.2,36.8,30.08,SE,127,0.0,5.0,75,0.00,,OVC085,0.00,VWS V14.01,2013-03-31 03:00:00,
2013-03-30 23:01:00,44.2,36.8,30.08,East,88,2.0,4.0,75,0.00,,CLR,0.00,VWS V14.01,2013-03-31 03:01:00,
2013-03-30 23:06:00,44.1,36.7,30.08,ESE,112,0.0,7.0,75,0.00,,CLR,0.00,VWS V14.01,2013-03-31 03:06:00,
2013-03-30 23:11:00,43.9,36.5,30.07,ESE,107,2.0,7.0,75,0.00,,CLR,0.00,VWS V14.01,2013-03-31 03:11:00,
2013-03-30 23:16:00,43.9,36.5,30.07,ESE,105,1.0,7.0,75,0.00,,CLR,0.00,VWS V14.01,2013-03-31 03:16:00,
2013-03-30 23:21:00,43.9,36.5,30.07,East,95,0.0,7.0,75,0.00,,CLR,0.00,VWS V14.01,2013-03-31 03:21:00,
2013-03-30 23:26:00,43.8,36.4,30.07,SE,124,0.0,7.0,75,0.00,,CLR,0.00,VWS V14.01,2013-03-31 03:26:00,
2013-03-30 23:30:00,43.7,37.0,30.07,SE,134,3.0,7.0,77,0.00,,OVC085,0.00,VWS V14.01,2013-03-31 03:30:00,
2013-03-30 23:31:00,43.7,36.6,30.07,ESE,103,0.0,3.0,76,0.00,,CLR,0.00,VWS V14.01,2013-03-31 03:31:00,
2013-03-30 23:37:00,43.5,36.5,30.07,ESE,103,0.0,3.0,76,0.00,,CLR,0.00,VWS V14.01,2013-03-31 03:37:00,
2013-03-30 23:42:00,43.3,35.9,30.07,SE,146,0.0,3.0,75,0.00,,CLR,0.00,VWS V14.01,2013-03-31 03:42:00,
2013-03-30 23:46:00,43.2,35.1,30.07,SE,146,0.0,3.0,73,0.00,,CLR,0.00,VWS V14.01,2013-03-31 03:46:00,
2013-03-30 23:52:00,43.4,35.7,30.07,SE,145,0.0,3.0,74,0.00,,CLR,0.00,VWS V14.01,2013-03-31 03:52:00,
2013-03-30 23:57:00,43.7,36.0,30.07,SE,145,0.0,3.0,74,0.00,,CLR,0.00,VWS V14.01,2013-03-31 03:57:00,